RSCU652 YDVE-YXRP
Flight info
| Callsign | RSCU652 |
|---|---|
| Flight time | 0h 19m |
| Altitude | 6000 |
| Route | PH PCTY |
| Aircraft | AS50/L-SDE3/B2 |
Departure
| Time | 2026-05-06 10:09 |
|---|---|
| Airport | Dale River Airport (YDVE) |
Arrival
| Time | 2026-05-06 10:28 |
|---|---|
| Airport | Royal Perth Hospital Helipad (YXRP) |
| Time | Latitude | Longitude | Altitude | Speed | Heading |
|---|---|---|---|---|---|
| 2026-05-06 09:52 | -32.28099 | 116.53812 | 996 ft | 0 kts | 288° |
| 2026-05-06 09:59 | -32.28100 | 116.53812 | 996 ft | 0 kts | 288° |
| 2026-05-06 10:04 | -32.28099 | 116.53812 | 996 ft | 0 kts | 288° |
| 2026-05-06 10:07 | -32.28099 | 116.53810 | 996 ft | 0 kts | 289° |
| 2026-05-06 10:07 | -32.28096 | 116.53797 | 996 ft | 0 kts | 282° |
| 2026-05-06 10:07 | -32.28095 | 116.53794 | 996 ft | 1 kts | 288° |
| 2026-05-06 10:07 | -32.28082 | 116.53749 | 992 ft | 7 kts | 287° |
| 2026-05-06 10:08 | -32.28082 | 116.53747 | 992 ft | 0 kts | 285° |
| 2026-05-06 10:08 | -32.28077 | 116.53738 | 1005 ft | 6 kts | 313° |
| 2026-05-06 10:08 | -32.27959 | 116.53628 | 1233 ft | 46 kts | 306° |
| 2026-05-06 10:09 | -32.27646 | 116.53248 | 1551 ft | 87 kts | 295° |
| 2026-05-06 10:09 | -32.27281 | 116.52558 | 1769 ft | 114 kts | 287° |
| 2026-05-06 10:09 | -32.26878 | 116.51584 | 1713 ft | 148 kts | 292° |
| 2026-05-06 10:09 | -32.26411 | 116.50370 | 1485 ft | 174 kts | 293° |
| 2026-05-06 10:10 | -32.25968 | 116.49774 | 1255 ft | 120 kts | 302° |
| 2026-05-06 10:10 | -32.25856 | 116.49514 | 1112 ft | 0 kts | 359° |
| 2026-05-06 10:10 | -32.25882 | 116.49529 | 1105 ft | 0 kts | 305° |
| 2026-05-06 10:10 | -32.26537 | 116.50652 | 1067 ft | 0 kts | 304° |
| 2026-05-06 10:11 | -32.26493 | 116.50589 | 1028 ft | 5 kts | 283° |
| 2026-05-06 10:11 | -32.26483 | 116.50608 | 1026 ft | 8 kts | 147° |
| 2026-05-06 10:11 | -32.26480 | 116.50606 | 1024 ft | 6 kts | 298° |
| 2026-05-06 10:11 | -32.26517 | 116.50569 | 1113 ft | 24 kts | 178° |
| 2026-05-06 10:12 | -32.26896 | 116.50664 | 1308 ft | 83 kts | 166° |
| 2026-05-06 10:12 | -32.27507 | 116.50324 | 1716 ft | 119 kts | 227° |
| 2026-05-06 10:12 | -32.27665 | 116.49317 | 2106 ft | 136 kts | 283° |
| 2026-05-06 10:12 | -32.27111 | 116.48390 | 2490 ft | 143 kts | 321° |
| 2026-05-06 10:13 | -32.26355 | 116.47602 | 2927 ft | 146 kts | 322° |
| 2026-05-06 10:13 | -32.25597 | 116.46793 | 3364 ft | 147 kts | 321° |
| 2026-05-06 10:13 | -32.24861 | 116.45960 | 3814 ft | 146 kts | 320° |
| 2026-05-06 10:13 | -32.24153 | 116.45108 | 4245 ft | 144 kts | 319° |
| 2026-05-06 10:14 | -32.23471 | 116.44244 | 4696 ft | 144 kts | 316° |
| 2026-05-06 10:14 | -32.22809 | 116.43361 | 5151 ft | 143 kts | 313° |
| 2026-05-06 10:14 | -32.22162 | 116.42463 | 5588 ft | 144 kts | 311° |
| 2026-05-06 10:14 | -32.21520 | 116.41539 | 6014 ft | 149 kts | 309° |
| 2026-05-06 10:15 | -32.20850 | 116.40535 | 6253 ft | 164 kts | 307° |
| 2026-05-06 10:15 | -32.20123 | 116.39408 | 6354 ft | 181 kts | 305° |
| 2026-05-06 10:15 | -32.19358 | 116.38176 | 6353 ft | 187 kts | 304° |
| 2026-05-06 10:15 | -32.18605 | 116.36933 | 6401 ft | 184 kts | 303° |
| 2026-05-06 10:16 | -32.17865 | 116.35703 | 6397 ft | 183 kts | 304° |
| 2026-05-06 10:16 | -32.17171 | 116.34555 | 6438 ft | 163 kts | 305° |
| 2026-05-06 10:16 | -32.16513 | 116.33459 | 6434 ft | 162 kts | 304° |
| 2026-05-06 10:16 | -32.15860 | 116.32370 | 6421 ft | 165 kts | 304° |
| 2026-05-06 10:17 | -32.15203 | 116.31274 | 6406 ft | 163 kts | 305° |
| 2026-05-06 10:17 | -32.14557 | 116.30188 | 6415 ft | 159 kts | 305° |
| 2026-05-06 10:17 | -32.13908 | 116.29105 | 6416 ft | 163 kts | 305° |
| 2026-05-06 10:17 | -32.13254 | 116.28004 | 6424 ft | 165 kts | 305° |
| 2026-05-06 10:18 | -32.12608 | 116.26900 | 6432 ft | 161 kts | 303° |
| 2026-05-06 10:18 | -32.11964 | 116.25808 | 6423 ft | 163 kts | 304° |
| 2026-05-06 10:18 | -32.11322 | 116.24711 | 6431 ft | 161 kts | 304° |
| 2026-05-06 10:18 | -32.10688 | 116.23634 | 6426 ft | 160 kts | 305° |
| 2026-05-06 10:19 | -32.10041 | 116.22535 | 6413 ft | 165 kts | 305° |
| 2026-05-06 10:19 | -32.09397 | 116.21424 | 6430 ft | 162 kts | 304° |
| 2026-05-06 10:19 | -32.08752 | 116.20318 | 6417 ft | 167 kts | 305° |
| 2026-05-06 10:19 | -32.08111 | 116.19211 | 6422 ft | 165 kts | 305° |
| 2026-05-06 10:20 | -32.07464 | 116.18098 | 6430 ft | 162 kts | 304° |
| 2026-05-06 10:20 | -32.06822 | 116.16998 | 6421 ft | 166 kts | 305° |
| 2026-05-06 10:20 | -32.06179 | 116.15891 | 6427 ft | 163 kts | 304° |
| 2026-05-06 10:20 | -32.05548 | 116.14803 | 6424 ft | 159 kts | 304° |
| 2026-05-06 10:21 | -32.04912 | 116.13718 | 6425 ft | 164 kts | 306° |
| 2026-05-06 10:21 | -32.04267 | 116.12613 | 6432 ft | 162 kts | 304° |
| 2026-05-06 10:21 | -32.03624 | 116.11513 | 6422 ft | 165 kts | 305° |
| 2026-05-06 10:21 | -32.02960 | 116.10381 | 6425 ft | 169 kts | 305° |
| 2026-05-06 10:22 | -32.02306 | 116.09259 | 6430 ft | 164 kts | 304° |
| 2026-05-06 10:22 | -32.01657 | 116.08149 | 6429 ft | 166 kts | 305° |
| 2026-05-06 10:22 | -32.01008 | 116.07037 | 6435 ft | 162 kts | 304° |
| 2026-05-06 10:22 | -32.00380 | 116.05958 | 6432 ft | 159 kts | 304° |
| 2026-05-06 10:23 | -31.99737 | 116.04857 | 6304 ft | 167 kts | 304° |
| 2026-05-06 10:23 | -31.99112 | 116.03787 | 6147 ft | 151 kts | 305° |
| 2026-05-06 10:23 | -31.98523 | 116.02773 | 5660 ft | 148 kts | 306° |
| 2026-05-06 10:23 | -31.97956 | 116.01797 | 5168 ft | 141 kts | 306° |
| 2026-05-06 10:24 | -31.97412 | 116.00846 | 4658 ft | 139 kts | 307° |
| 2026-05-06 10:24 | -31.96875 | 115.99910 | 4152 ft | 138 kts | 309° |
| 2026-05-06 10:24 | -31.96335 | 115.98977 | 3648 ft | 137 kts | 309° |
| 2026-05-06 10:24 | -31.95841 | 115.98027 | 3156 ft | 133 kts | 306° |
| 2026-05-06 10:25 | -31.95551 | 115.97402 | 2861 ft | 131 kts | 295° |
| 2026-05-06 10:25 | -31.95311 | 115.96343 | 2365 ft | 132 kts | 277° |
| 2026-05-06 10:25 | -31.95249 | 115.95337 | 2247 ft | 124 kts | 272° |
| 2026-05-06 10:25 | -31.95260 | 115.94354 | 2206 ft | 116 kts | 268° |
| 2026-05-06 10:26 | -31.95313 | 115.93409 | 2136 ft | 115 kts | 265° |
| 2026-05-06 10:26 | -31.95368 | 115.92479 | 2067 ft | 115 kts | 266° |
| 2026-05-06 10:26 | -31.95392 | 115.91560 | 2057 ft | 112 kts | 269° |
| 2026-05-06 10:26 | -31.95370 | 115.90627 | 1957 ft | 113 kts | 270° |
| 2026-05-06 10:27 | -31.95382 | 115.89685 | 1683 ft | 115 kts | 266° |
| 2026-05-06 10:27 | -31.95511 | 115.88790 | 1264 ft | 107 kts | 255° |
| 2026-05-06 10:27 | -31.95500 | 115.87992 | 813 ft | 89 kts | 274° |
| 2026-05-06 10:27 | -31.95420 | 115.87354 | 468 ft | 66 kts | 270° |
| 2026-05-06 10:28 | -31.95354 | 115.86938 | 232 ft | 35 kts | 267° |
| 2026-05-06 10:28 | -31.95335 | 115.86824 | 101 ft | 1 kts | 275° |
| 2026-05-06 10:28 | -31.95338 | 115.86789 | 181 ft | 6 kts | 273° |
| 2026-05-06 10:28 | -31.95337 | 115.86750 | 171 ft | 4 kts | 278° |
| 2026-05-06 10:29 | -31.95335 | 115.86734 | 157 ft | 0 kts | 282° |
| 2026-05-06 10:29 | -31.95334 | 115.86732 | 152 ft | 0 kts | 275° |